Time;durP1;ratioP1;P1;durP2;ratioP2;P2;SDS_P1;SDS_P2;PMS_P1;PMS_P2;Temp;Humidity;BMP_temperature;BMP_pressure;BME280_temperature;BME280_humidity;BME280_pressure;Samples;Min_cycle;Max_cycle;Signal;HPM_P1;HPM_P2
2022/01/10 00:02:09;;;;;;;10.27;6.70;;;;;;;3.18;86.60;99846.19;4927743;28;20425;-80
2022/01/10 00:04:34;;;;;;;14.53;6.80;;;;;;;3.19;86.79;99840.63;4943981;28;20422;-80
2022/01/10 00:06:59;;;;;;;10.40;6.50;;;;;;;3.20;86.59;99847.59;4929760;28;20961;-80
2022/01/10 00:09:25;;;;;;;12.20;6.40;;;;;;;3.19;86.56;99851.34;4928992;29;20413;-79
2022/01/10 00:11:50;;;;;;;12.30;6.67;;;;;;;3.17;86.61;99857.91;4941325;28;20414;-80
2022/01/10 00:14:15;;;;;;;11.53;6.93;;;;;;;3.16;86.96;99857.13;4944478;28;20945;-79
2022/01/10 00:16:41;;;;;;;11.97;6.83;;;;;;;3.21;86.75;99861.81;4927860;28;20427;-80
2022/01/10 00:19:06;;;;;;;8.93;7.00;;;;;;;3.23;86.65;99865.13;4944297;28;20774;-80
2022/01/10 00:21:32;;;;;;;11.13;6.80;;;;;;;3.24;86.43;99866.75;4942390;28;20429;-79
2022/01/10 00:23:57;;;;;;;9.80;7.33;;;;;;;3.23;86.32;99870.47;4941975;28;20513;-79
2022/01/10 00:26:23;;;;;;;8.83;6.70;;;;;;;3.21;86.57;99861.81;4943795;28;20420;-80
2022/01/10 00:28:48;;;;;;;10.20;6.93;;;;;;;3.18;86.74;99868.41;4943390;28;20784;-80
2022/01/10 00:31:13;;;;;;;11.45;6.75;;;;;;;3.17;86.60;99865.94;4942991;28;20436;-79
2022/01/10 00:33:39;;;;;;;11.70;7.90;;;;;;;3.15;86.71;99874.19;4945146;28;20425;-80
2022/01/10 00:36:04;;;;;;;11.90;8.30;;;;;;;3.06;87.01;99880.81;4930540;28;20423;-80
2022/01/10 00:38:30;;;;;;;12.20;7.80;;;;;;;2.93;87.49;99881.66;4943735;28;20423;-80
2022/01/10 00:40:55;;;;;;;11.23;7.60;;;;;;;2.88;88.02;99883.31;4943718;28;20455;-81
2022/01/10 00:43:31;;;;;;;12.50;7.80;;;;;;;2.87;87.91;99889.69;4941977;28;20508;-80
2022/01/10 00:45:57;;;;;;;11.88;8.00;;;;;;;2.81;88.22;99880.66;4944253;28;20893;-80
2022/01/10 00:48:22;;;;;;;14.65;8.80;;;;;;;2.76;88.24;99888.50;4942864;28;20410;-79
2022/01/10 00:50:48;;;;;;;15.52;8.80;;;;;;;2.75;88.17;99888.69;4943062;28;20409;-79
2022/01/10 00:53:13;;;;;;;12.27;8.90;;;;;;;2.70;88.24;99891.97;4944075;28;20446;-80
2022/01/10 00:55:38;;;;;;;13.83;8.73;;;;;;;2.66;88.05;99898.81;4943288;28;20822;-81
2022/01/10 00:58:04;;;;;;;13.77;10.17;;;;;;;2.68;88.14;99901.25;4927523;28;20417;-79
2022/01/10 01:00:29;;;;;;;15.65;11.40;;;;;;;2.69;88.00;99908.25;4921687;28;20414;-80
2022/01/10 01:02:55;;;;;;;14.63;10.63;;;;;;;2.69;87.79;99917.13;4942134;28;20501;-80
2022/01/10 01:05:22;;;;;;;13.87;9.43;;;;;;;2.71;87.71;99917.72;4934007;28;20429;-80
2022/01/10 01:07:48;;;;;;;16.20;10.48;;;;;;;2.73;87.82;99921.03;4942861;28;20413;-79
2022/01/10 01:12:54;;;;;;;20.40;10.98;;;;;;;2.78;88.35;99929.25;4946178;28;20421;-80
2022/01/10 01:18:19;;;;;;;11.88;9.25;;;;;;;2.91;88.09;99939.09;4917111;28;20521;-80
2022/01/10 01:23:59;;;;;;;15.10;9.75;;;;;;;2.95;88.27;99938.50;4927573;28;20511;-80
2022/01/10 01:26:14;;;;;;;15.90;10.75;;;;;;;3.02;87.67;99936.63;4943073;28;20461;-80
2022/01/10 01:28:39;;;;;;;13.18;10.10;;;;;;;3.03;86.92;99942.81;4943627;28;20413;-80
2022/01/10 01:31:05;;;;;;;11.40;10.27;;;;;;;3.04;86.93;99949.78;4942695;28;20814;-80
2022/01/10 01:33:30;;;;;;;13.43;10.45;;;;;;;3.02;86.87;99954.53;4943241;28;20482;-80
2022/01/10 01:35:55;;;;;;;14.80;9.63;;;;;;;2.99;86.70;99952.28;4944258;28;20429;-80
2022/01/10 01:38:20;;;;;;;13.43;10.37;;;;;;;2.95;86.61;99951.88;4942390;28;20500;-80
2022/01/10 01:40:55;;;;;;;12.20;10.10;;;;;;;2.91;86.72;99966.69;4926316;28;20425;-79
2022/01/10 01:43:20;;;;;;;14.33;10.07;;;;;;;2.85;86.81;99970.22;4926663;28;20421;-79
2022/01/10 01:45:48;;;;;;;17.60;11.17;;;;;;;2.82;86.97;99980.50;4942618;28;20424;-80
2022/01/10 01:48:14;;;;;;;14.07;10.23;;;;;;;2.78;87.42;99984.59;4943007;28;20452;-80
2022/01/10 01:50:40;;;;;;;18.50;11.43;;;;;;;2.77;87.50;99983.78;4943097;28;20445;-80
2022/01/10 01:53:06;;;;;;;14.43;11.25;;;;;;;2.77;86.87;99982.94;4941948;28;20972;-79
2022/01/10 01:55:31;;;;;;;19.13;12.63;;;;;;;2.75;87.01;99983.19;4942383;28;20463;-80
2022/01/10 01:57:57;;;;;;;19.67;12.80;;;;;;;2.76;87.12;99986.69;4941969;28;20457;-80
2022/01/10 02:00:26;;;;;;;17.00;11.63;;;;;;;2.75;87.25;99985.84;4941609;28;20444;-80
2022/01/10 02:02:52;;;;;;;15.80;12.20;;;;;;;2.75;87.13;99993.88;4943204;28;20426;-79
2022/01/10 02:05:18;;;;;;;14.90;12.10;;;;;;;2.76;87.05;99994.72;4924741;28;20418;-80
2022/01/10 02:07:44;;;;;;;16.58;11.98;;;;;;;2.77;87.45;100009.72;4941953;28;21034;-80
2022/01/10 02:10:10;;;;;;;15.43;11.45;;;;;;;2.77;87.65;100013.22;4929586;29;20424;-80
2022/01/10 02:12:36;;;;;;;16.30;11.67;;;;;;;2.76;87.71;100008.91;4941862;28;20417;-80
2022/01/10 02:15:01;;;;;;;15.47;11.37;;;;;;;2.78;88.07;100014.88;4943367;28;21256;-80
2022/01/10 02:17:34;;;;;;;17.87;12.50;;;;;;;2.79;87.95;100016.53;4940629;28;20422;-80
2022/01/10 02:20:01;;;;;;;18.50;12.30;;;;;;;2.79;87.45;100013.03;4942048;28;20834;-79
2022/01/10 02:22:27;;;;;;;20.02;12.07;;;;;;;2.77;87.63;100015.88;4949719;28;20836;-80
2022/01/10 02:24:52;;;;;;;18.60;12.68;;;;;;;2.75;87.86;100023.31;4946611;28;20506;-80
2022/01/10 02:27:21;;;;;;;15.47;12.93;;;;;;;2.77;88.01;100025.75;4941651;28;20461;-80
2022/01/10 02:29:47;;;;;;;19.30;13.55;;;;;;;2.78;87.89;100028.25;4926729;28;20516;-80
2022/01/10 02:32:12;;;;;;;19.10;14.07;;;;;;;2.83;87.92;100033.00;4943698;28;20518;-80
2022/01/10 02:34:37;;;;;;;18.33;14.73;;;;;;;2.87;87.85;100037.72;4943212;28;20775;-79
2022/01/10 02:37:03;;;;;;;18.17;14.80;;;;;;;2.87;88.16;100032.38;4942056;28;20456;-80
2022/01/10 02:39:28;;;;;;;22.13;14.17;;;;;;;2.90;87.74;100042.66;4935040;28;20935;-80
2022/01/10 02:41:53;;;;;;;15.43;12.50;;;;;;;2.92;87.86;100040.63;4943414;28;20424;-79
2022/01/10 02:44:19;;;;;;;19.07;12.93;;;;;;;2.95;87.93;100042.88;4946305;28;21007;-80
2022/01/10 02:46:45;;;;;;;19.47;13.77;;;;;;;2.91;87.88;100041.63;4945865;28;20878;-79
2022/01/10 02:49:13;;;;;;;19.27;12.70;;;;;;;2.95;87.59;100048.22;4928307;28;20500;-80
2022/01/10 02:51:39;;;;;;;15.65;12.05;;;;;;;2.96;87.30;100057.09;4944146;28;20417;-80
2022/01/10 02:54:04;;;;;;;16.17;11.00;;;;;;;2.96;87.33;100049.88;4945144;28;20436;-79
2022/01/10 02:56:29;;;;;;;18.80;11.73;;;;;;;2.98;87.50;100055.03;4943903;28;20428;-80
2022/01/10 02:58:55;;;;;;;15.43;11.80;;;;;;;2.97;87.46;100059.53;4946813;28;20426;-80
2022/01/10 03:01:20;;;;;;;14.93;11.13;;;;;;;2.97;87.12;100064.91;4927815;28;20417;-80
2022/01/10 03:03:45;;;;;;;17.17;11.50;;;;;;;2.98;87.53;100063.88;4945181;28;20433;-80
2022/01/10 03:06:11;;;;;;;16.13;11.60;;;;;;;3.01;87.48;100073.34;4951596;28;20422;-80
2022/01/10 03:08:36;;;;;;;17.05;11.70;;;;;;;3.03;87.66;100077.47;4917276;28;20418;-80
2022/01/10 03:11:01;;;;;;;13.15;11.75;;;;;;;3.05;87.67;100079.94;4928500;28;20502;-79
2022/01/10 03:13:27;;;;;;;14.30;11.77;;;;;;;3.06;87.51;100085.06;4929202;28;20421;-79
2022/01/10 03:15:52;;;;;;;16.43;12.07;;;;;;;3.06;87.41;100084.28;4944810;28;20433;-80
2022/01/10 03:18:17;;;;;;;14.50;11.50;;;;;;;3.06;87.72;100095.00;4945074;28;20512;-80
2022/01/10 03:20:43;;;;;;;14.50;12.20;;;;;;;3.05;87.29;100099.50;4944789;28;20450;-80
2022/01/10 03:23:09;;;;;;;20.77;14.70;;;;;;;3.04;87.41;100095.19;4943503;28;20418;-79
2022/01/10 03:25:34;;;;;;;15.33;12.80;;;;;;;3.03;87.80;100103.44;4946889;28;20418;-80
2022/01/10 03:27:59;;;;;;;14.27;12.50;;;;;;;3.02;87.79;100099.91;4955397;29;20401;-80
2022/01/10 03:30:26;;;;;;;16.57;14.03;;;;;;;3.00;87.82;100107.31;4930503;28;20538;-80
2022/01/10 03:32:52;;;;;;;18.85;14.32;;;;;;;3.01;87.28;100113.50;4945359;28;20417;-80
2022/01/10 03:35:20;;;;;;;18.85;13.98;;;;;;;3.01;87.64;100113.50;4944461;28;20432;-80
2022/01/10 03:37:45;;;;;;;21.67;15.40;;;;;;;3.02;87.90;100118.66;4928870;28;20909;-80
2022/01/10 03:40:10;;;;;;;19.63;15.93;;;;;;;3.04;87.61;100129.16;4944518;28;20418;-79
2022/01/10 03:42:36;;;;;;;21.90;17.55;;;;;;;3.00;88.04;100126.06;4945275;28;20414;-79
2022/01/10 03:45:04;;;;;;;24.67;19.80;;;;;;;2.96;88.14;100132.88;4921487;28;20422;-79
2022/01/10 03:47:29;;;;;;;26.52;17.92;;;;;;;2.94;88.38;100136.75;4943798;28;20433;-79
2022/01/10 03:49:54;;;;;;;24.73;18.97;;;;;;;2.91;88.69;100138.00;4945387;28;20432;-79
2022/01/10 03:52:20;;;;;;;24.90;18.00;;;;;;;2.95;88.64;100138.41;4943925;28;20524;-79
2022/01/10 03:54:45;;;;;;;25.07;19.03;;;;;;;2.98;88.46;100138.00;4943668;28;20543;-80
2022/01/10 03:57:11;;;;;;;24.37;18.33;;;;;;;3.00;88.29;100146.63;4944037;28;20425;-80
2022/01/10 03:59:37;;;;;;;27.23;19.13;;;;;;;3.01;88.17;100151.81;4928094;28;20801;-79
2022/01/10 04:02:04;;;;;;;27.08;19.23;;;;;;;3.01;88.17;100154.47;4944008;28;20467;-79
2022/01/10 04:04:29;;;;;;;31.83;20.42;;;;;;;2.98;88.28;100157.56;4915188;28;20420;-79
2022/01/10 04:06:55;;;;;;;30.40;22.40;;;;;;;2.99;88.49;100161.06;4944602;28;20418;-80
2022/01/10 04:09:21;;;;;;;30.90;21.57;;;;;;;2.99;88.60;100159.22;4926380;28;20487;-80
2022/01/10 04:11:47;;;;;;;28.25;21.60;;;;;;;3.02;88.41;100163.34;4943845;28;20476;-80
2022/01/10 04:14:12;;;;;;;27.30;20.85;;;;;;;3.02;88.03;100161.50;4944879;28;20830;-80
2022/01/10 04:16:38;;;;;;;29.88;20.73;;;;;;;3.01;88.05;100157.16;4925871;28;20481;-80
2022/01/10 04:19:03;;;;;;;31.70;20.67;;;;;;;2.98;88.02;100167.44;4927509;28;20413;-79
2022/01/10 04:21:28;;;;;;;28.67;21.40;;;;;;;2.99;87.90;100177.97;4926999;28;20415;-80
2022/01/10 04:23:54;;;;;;;29.63;20.53;;;;;;;2.99;88.21;100180.63;4943607;28;20422;-80
2022/01/10 04:26:19;;;;;;;28.00;19.43;;;;;;;2.98;88.83;100186.19;4928094;29;20913;-79
2022/01/10 04:28:44;;;;;;;26.20;19.40;;;;;;;2.97;88.82;100180.00;4928052;28;20449;-80
2022/01/10 04:31:11;;;;;;;24.80;18.90;;;;;;;2.98;88.51;100180.81;4942892;28;20521;-80
2022/01/10 04:33:37;;;;;;;31.00;19.85;;;;;;;2.97;88.98;100193.38;4941545;28;20915;-79
2022/01/10 04:36:03;;;;;;;29.70;20.63;;;;;;;3.00;88.66;100187.63;4943418;28;20425;-80
2022/01/10 04:38:28;;;;;;;27.35;20.27;;;;;;;3.03;88.33;100191.78;4943385;28;20783;-79
2022/01/10 04:40:54;;;;;;;24.52;18.52;;;;;;;3.01;88.38;100197.31;4943694;28;20418;-80
2022/01/10 04:43:19;;;;;;;25.77;19.57;;;;;;;2.97;88.60;100200.59;4942748;28;20421;-80
2022/01/10 04:45:45;;;;;;;28.30;19.73;;;;;;;2.89;89.07;100209.63;4927416;28;20430;-79
2022/01/10 04:48:10;;;;;;;24.87;18.63;;;;;;;2.83;89.44;100204.25;4942868;28;20417;-79
2022/01/10 04:53:19;;;;;;;28.48;18.75;;;;;;;2.87;89.27;100221.56;4943429;28;20519;-80
2022/01/10 04:55:44;;;;;;;33.13;19.98;;;;;;;2.90;89.17;100216.63;4925077;28;20813;-80
2022/01/10 04:58:10;;;;;;;27.90;20.63;;;;;;;2.97;88.71;100228.19;4944379;28;20420;-80
2022/01/10 05:00:35;;;;;;;26.20;19.63;;;;;;;2.91;88.78;100231.66;4943794;28;20472;-80
2022/01/10 05:03:00;;;;;;;25.90;18.88;;;;;;;2.95;88.87;100234.75;4943327;28;20418;-79
2022/01/10 05:05:26;;;;;;;23.93;18.33;;;;;;;2.99;88.84;100244.06;4948525;28;20422;-79
2022/01/10 05:07:51;;;;;;;27.00;18.70;;;;;;;3.00;88.54;100243.84;4943489;28;20421;-80
2022/01/10 05:10:17;;;;;;;26.77;16.55;;;;;;;2.99;88.60;100255.59;4923221;28;20521;-79
2022/01/10 05:12:42;;;;;;;29.75;17.88;;;;;;;3.00;88.43;100248.34;4912554;28;20770;-80
2022/01/10 05:15:08;;;;;;;28.87;17.97;;;;;;;2.97;88.33;100254.13;4925417;28;20432;-80
2022/01/10 05:17:33;;;;;;;25.75;19.05;;;;;;;2.91;88.71;100253.06;4941140;28;20916;-80
2022/01/10 05:19:59;;;;;;;27.67;19.77;;;;;;;2.89;89.31;100263.16;4942277;28;20425;-80
2022/01/10 05:22:24;;;;;;;26.87;19.20;;;;;;;2.97;88.74;100259.47;4924475;29;20917;-80
2022/01/10 05:24:49;;;;;;;29.00;19.30;;;;;;;2.99;88.78;100266.31;4942884;28;20913;-79
2022/01/10 05:27:15;;;;;;;27.73;18.73;;;;;;;2.93;88.36;100268.94;4943544;28;20425;-79
2022/01/10 05:29:43;;;;;;;25.93;18.50;;;;;;;2.95;88.63;100277.59;4943777;28;20504;-80
2022/01/10 05:32:08;;;;;;;24.98;17.77;;;;;;;2.99;88.69;100281.53;4923591;28;20415;-80
2022/01/10 05:34:33;;;;;;;28.05;18.92;;;;;;;2.99;88.40;100286.88;4943119;28;20441;-80
2022/01/10 05:36:59;;;;;;;25.50;17.53;;;;;;;2.97;88.54;100291.59;4942141;28;20422;-79
2022/01/10 05:39:24;;;;;;;24.93;17.40;;;;;;;2.91;88.44;100292.38;4943631;28;20417;-80
2022/01/10 05:41:50;;;;;;;23.70;17.73;;;;;;;2.94;88.91;100302.69;4926938;28;20427;-79
2022/01/10 05:44:15;;;;;;;26.13;18.23;;;;;;;2.98;88.73;100312.81;4928804;28;20920;-80
2022/01/10 05:46:42;;;;;;;31.17;21.70;;;;;;;3.03;88.54;100310.34;4942788;28;20823;-80
2022/01/10 05:49:11;;;;;;;28.73;22.15;;;;;;;3.06;87.81;100317.19;4941924;28;20904;-79
2022/01/10 05:51:36;;;;;;;30.65;21.75;;;;;;;3.07;87.68;100321.50;4952530;29;20410;-80
2022/01/10 05:54:03;;;;;;;28.93;21.10;;;;;;;3.06;88.05;100318.00;4937926;29;20418;-80
2022/01/10 05:56:29;;;;;;;31.80;20.27;;;;;;;3.07;87.88;100332.19;4958227;28;20412;-80
2022/01/10 05:58:54;;;;;;;33.47;21.17;;;;;;;3.07;87.96;100332.19;4933911;29;20394;-79
2022/01/10 06:01:20;;;;;;;31.57;22.33;;;;;;;3.07;88.10;100337.56;4918997;29;20506;-80
2022/01/10 06:03:45;;;;;;;33.38;22.33;;;;;;;3.02;87.88;100340.84;4952680;29;20402;-80
2022/01/10 06:06:11;;;;;;;37.60;23.23;;;;;;;3.02;87.76;100351.56;4934108;28;20410;-79
2022/01/10 06:08:36;;;;;;;34.20;22.42;;;;;;;3.03;87.92;100352.38;4945256;28;20501;-79
2022/01/10 06:11:02;;;;;;;31.60;21.03;;;;;;;3.06;87.94;100358.16;4939081;28;20428;-80
2022/01/10 06:13:27;;;;;;;27.90;20.23;;;;;;;3.08;87.65;100363.31;4941845;28;20571;-79
2022/01/10 06:15:53;;;;;;;29.93;21.63;;;;;;;3.05;87.75;100364.53;4951195;28;20465;-79
2022/01/10 06:18:18;;;;;;;32.15;20.55;;;;;;;3.06;87.33;100378.75;4952672;28;20789;-81
2022/01/10 06:20:44;;;;;;;32.45;21.00;;;;;;;3.04;87.15;100373.59;4956887;29;20659;-79
2022/01/10 06:23:11;;;;;;;27.60;20.23;;;;;;;3.00;87.18;100384.88;4955944;29;20398;-80
2022/01/10 06:25:38;;;;;;;26.10;18.42;;;;;;;2.99;87.41;100388.59;4953628;28;20398;-80
2022/01/10 06:28:04;;;;;;;25.27;18.67;;;;;;;2.99;87.70;100400.16;4955678;28;20452;-79
2022/01/10 06:30:29;;;;;;;27.37;18.50;;;;;;;2.99;87.68;100396.63;4956639;28;20394;-78
2022/01/10 06:32:55;;;;;;;25.83;17.80;;;;;;;3.00;87.45;100409.81;4956198;29;20398;-79
2022/01/10 06:35:20;;;;;;;25.60;18.37;;;;;;;3.00;87.23;100409.81;4939272;29;20414;-79
2022/01/10 06:37:45;;;;;;;25.52;18.48;;;;;;;3.01;87.52;100416.00;4955752;29;20413;-79
2022/01/10 06:40:12;;;;;;;25.00;17.03;;;;;;;3.03;87.69;100413.97;4955345;28;20414;-80
2022/01/10 06:42:38;;;;;;;26.77;18.50;;;;;;;3.01;87.78;100422.19;4954755;28;20742;-80
2022/01/10 06:45:03;;;;;;;23.93;17.53;;;;;;;3.02;87.70;100429.19;4956418;29;20405;-79
2022/01/10 06:47:29;;;;;;;25.70;18.00;;;;;;;3.01;87.99;100432.88;4934810;29;20912;-81
2022/01/10 06:49:54;;;;;;;27.10;18.40;;;;;;;2.98;88.37;100435.97;4956315;29;20878;-79
2022/01/10 06:52:19;;;;;;;28.70;18.53;;;;;;;3.02;88.21;100441.75;4933501;29;20425;-78
2022/01/10 06:54:45;;;;;;;27.63;19.35;;;;;;;3.03;87.55;100449.56;4953641;28;20469;-77
2022/01/10 06:57:10;;;;;;;21.83;17.63;;;;;;;3.03;87.92;100457.59;4954656;28;20400;-78
2022/01/10 06:59:36;;;;;;;22.40;17.43;;;;;;;3.02;87.85;100461.31;4932250;28;20410;-80
2022/01/10 07:02:01;;;;;;;27.50;18.40;;;;;;;3.04;87.86;100469.13;4932193;29;20428;-79
2022/01/10 07:04:28;;;;;;;27.37;18.17;;;;;;;3.02;88.09;100469.34;4955137;28;20417;-80
2022/01/10 07:06:54;;;;;;;25.60;19.42;;;;;;;3.03;88.29;100476.34;4953283;29;20405;-79
2022/01/10 07:09:20;;;;;;;26.45;18.83;;;;;;;3.05;88.25;100481.50;4954605;28;20402;-80
2022/01/10 07:11:45;;;;;;;35.33;27.05;;;;;;;3.05;88.33;100485.03;4954974;28;20398;-80
2022/01/10 07:14:12;;;;;;;34.50;22.75;;;;;;;3.06;88.37;100491.22;4937482;29;20493;-80
2022/01/10 07:16:38;;;;;;;35.55;23.92;;;;;;;3.07;88.50;100503.56;4938915;29;20446;-80
2022/01/10 07:19:05;;;;;;;37.70;25.57;;;;;;;3.09;88.75;100499.69;4938040;28;20441;-80
2022/01/10 07:21:30;;;;;;;38.13;25.33;;;;;;;3.12;88.66;100514.53;4954593;29;20413;-82
2022/01/10 07:23:56;;;;;;;38.55;26.83;;;;;;;3.13;88.28;100516.97;4952635;28;20813;-81
2022/01/10 07:26:22;;;;;;;36.47;25.77;;;;;;;3.17;88.30;100529.97;4956344;28;20761;-80
2022/01/10 07:28:48;;;;;;;38.00;25.00;;;;;;;3.20;88.13;100532.25;4955015;28;20409;-80
2022/01/10 07:31:14;;;;;;;37.22;24.73;;;;;;;3.19;88.24;100544.03;4955433;29;20902;-81
2022/01/10 07:33:39;;;;;;;36.27;23.57;;;;;;;3.20;88.12;100549.16;4955814;29;20466;-81
2022/01/10 07:36:05;;;;;;;39.13;22.40;;;;;;;3.26;88.56;100559.09;4953556;29;20444;-82
2022/01/10 07:38:35;;;;;;;30.53;22.80;;;;;;;3.29;88.19;100563.25;4950859;28;20877;-81
2022/01/10 07:41:02;;;;;;;28.10;21.02;;;;;;;3.31;88.71;100569.22;4948928;28;20936;-80
2022/01/10 07:43:28;;;;;;;31.17;22.38;;;;;;;3.31;88.41;100574.59;4954043;28;20877;-79
2022/01/10 07:45:53;;;;;;;31.63;21.57;;;;;;;3.34;87.95;100577.72;4951674;28;20481;-80
2022/01/10 07:48:18;;;;;;;29.97;22.13;;;;;;;3.32;87.94;100570.91;4949605;28;20499;-79
2022/01/10 07:50:44;;;;;;;31.60;22.33;;;;;;;3.36;88.07;100590.91;4936577;29;20410;-80
2022/01/10 07:53:09;;;;;;;33.67;23.03;;;;;;;3.39;88.07;100588.66;4954718;29;20399;-80
2022/01/10 07:55:35;;;;;;;35.13;23.30;;;;;;;3.43;87.87;100584.56;4937923;29;20410;-81
2022/01/10 07:58:00;;;;;;;30.87;20.60;;;;;;;3.46;87.74;100588.69;4954925;29;20398;-81
2022/01/10 08:00:25;;;;;;;28.53;20.43;;;;;;;3.47;87.34;100593.03;4954963;29;20405;-81
2022/01/10 08:02:51;;;;;;;24.52;18.83;;;;;;;3.46;87.58;100583.34;4953290;28;20409;-80
2022/01/10 08:05:16;;;;;;;28.47;20.53;;;;;;;3.46;87.66;100591.38;4953738;29;20441;-81
2022/01/10 08:07:41;;;;;;;26.83;20.13;;;;;;;3.47;87.30;100588.53;4954656;29;20487;-81
2022/01/10 08:10:10;;;;;;;24.00;18.38;;;;;;;3.48;87.17;100603.59;4954325;29;20442;-80
2022/01/10 08:12:35;;;;;;;23.20;16.55;;;;;;;3.46;86.79;100599.41;4954879;29;20481;-80
2022/01/10 08:15:01;;;;;;;20.60;16.60;;;;;;;3.43;86.91;100607.84;4952486;29;20421;-81
2022/01/10 08:17:26;;;;;;;22.03;16.93;;;;;;;3.39;87.28;100617.31;4935063;29;20484;-81
2022/01/10 08:19:51;;;;;;;22.93;16.77;;;;;;;3.31;87.59;100612.91;4951336;29;20417;-80
2022/01/10 08:22:17;;;;;;;25.40;18.20;;;;;;;3.39;87.48;100622.69;4954051;29;20405;-80
2022/01/10 08:24:42;;;;;;;24.23;16.73;;;;;;;3.51;87.17;100631.81;4951448;29;20502;-80
2022/01/10 08:27:07;;;;;;;22.87;17.33;;;;;;;3.57;87.12;100633.72;4954244;29;20886;-80
2022/01/10 08:29:33;;;;;;;26.17;19.07;;;;;;;3.63;86.61;100644.50;4954366;28;20401;-80
2022/01/10 08:31:58;;;;;;;25.75;19.17;;;;;;;3.69;86.77;100653.59;4954433;29;20477;-80
2022/01/10 08:34:24;;;;;;;25.10;19.27;;;;;;;3.76;86.74;100657.16;4937391;29;20512;-81
2022/01/10 08:36:50;;;;;;;27.70;20.27;;;;;;;3.84;86.49;100653.50;4953829;29;20410;-80
2022/01/10 08:39:17;;;;;;;27.15;20.90;;;;;;;3.93;86.30;100671.91;4953234;29;20410;-81
2022/01/10 08:41:43;;;;;;;27.50;20.33;;;;;;;3.95;85.90;100664.50;4942566;29;20474;-80
2022/01/10 08:44:08;;;;;;;24.70;18.73;;;;;;;4.01;85.74;100658.38;4948283;29;20507;-80
2022/01/10 08:46:34;;;;;;;22.50;17.63;;;;;;;4.08;85.32;100671.81;4941095;28;20855;-80
2022/01/10 08:48:59;;;;;;;25.07;15.83;;;;;;;4.13;85.07;100669.34;4953232;29;20905;-81
2022/01/10 08:51:25;;;;;;;21.53;17.10;;;;;;;4.22;85.29;100681.56;4951180;28;20414;-81
2022/01/10 08:53:51;;;;;;;22.80;15.90;;;;;;;4.30;84.48;100680.59;4945585;29;20445;-81
2022/01/10 08:56:17;;;;;;;26.33;18.05;;;;;;;4.39;84.71;100688.25;4950400;29;20433;-81
2022/01/10 08:58:42;;;;;;;24.20;16.73;;;;;;;4.48;84.36;100686.25;4952240;28;20754;-80
2022/01/10 09:01:08;;;;;;;22.23;17.40;;;;;;;4.51;83.71;100685.84;4952901;29;20870;-80
2022/01/10 09:03:35;;;;;;;24.02;17.92;;;;;;;4.42;83.45;100698.59;4940833;28;20474;-81
2022/01/10 09:06:02;;;;;;;26.88;19.08;;;;;;;4.24;83.35;100698.31;4921145;29;20934;-80
2022/01/10 09:08:33;;;;;;;28.77;20.50;;;;;;;4.09;83.95;100700.25;4952489;28;20409;-79
2022/01/10 09:10:59;;;;;;;27.08;19.42;;;;;;;4.01;84.74;100703.13;4936374;29;20426;-81
2022/01/10 09:13:25;;;;;;;26.88;19.15;;;;;;;3.96;85.11;100701.00;4945694;28;20397;-81
2022/01/10 09:15:50;;;;;;;28.83;20.07;;;;;;;4.01;85.56;100714.69;4936280;29;20436;-81
2022/01/10 09:18:16;;;;;;;26.10;19.33;;;;;;;4.02;85.59;100724.34;4923441;29;20412;-80
2022/01/10 09:20:43;;;;;;;28.67;20.33;;;;;;;4.07;85.69;100719.25;4953488;28;20473;-80
2022/01/10 09:23:08;;;;;;;37.85;24.75;;;;;;;4.03;85.52;100727.88;4953295;29;20425;-80
2022/01/10 09:25:34;;;;;;;30.40;19.80;;;;;;;3.98;85.81;100727.66;4953219;29;20823;-81
2022/01/10 09:27:59;;;;;;;24.00;17.55;;;;;;;4.13;86.23;100739.09;4953500;29;20463;-80
2022/01/10 09:30:24;;;;;;;24.02;17.13;;;;;;;4.26;85.39;100743.69;4948989;28;20500;-81
2022/01/10 09:32:50;;;;;;;26.02;18.33;;;;;;;4.31;85.23;100744.78;4953095;29;20497;-81
2022/01/10 09:35:16;;;;;;;23.85;18.73;;;;;;;4.23;85.63;100750.28;4951524;28;20508;-80
2022/01/10 09:37:41;;;;;;;23.00;18.10;;;;;;;4.34;85.74;100748.91;4953199;28;20394;-79
2022/01/10 09:40:07;;;;;;;24.17;16.53;;;;;;;4.39;85.35;100754.50;4952114;29;20406;-80
2022/01/10 09:42:33;;;;;;;37.00;17.10;;;;;;;4.61;85.13;100759.59;4935630;29;20406;-80
2022/01/10 09:45:00;;;;;;;21.92;16.10;;;;;;;4.67;84.99;100764.19;4953190;29;20425;-80
2022/01/10 09:47:25;;;;;;;21.40;14.90;;;;;;;4.75;84.39;100773.91;4942383;28;20911;-80
2022/01/10 09:49:50;;;;;;;18.85;14.73;;;;;;;4.76;84.38;100766.69;4952371;29;20452;-80
2022/01/10 09:52:16;;;;;;;19.33;13.43;;;;;;;5.00;83.70;100768.88;4953804;28;20401;-79
2022/01/10 09:54:41;;;;;;;19.03;12.73;;;;;;;5.11;83.03;100774.47;4956581;29;20517;-78
2022/01/10 09:57:07;;;;;;;20.63;13.43;;;;;;;5.21;83.17;100769.53;4956942;28;20417;-80
2022/01/10 09:59:32;;;;;;;15.87;11.70;;;;;;;5.59;82.26;100769.00;4952748;29;20428;-80
2022/01/10 10:01:57;;;;;;;17.23;10.02;;;;;;;6.00;80.70;100782.28;4956116;29;20646;-80
2022/01/10 10:04:23;;;;;;;14.33;9.80;;;;;;;6.42;79.41;100784.53;4952406;28;20410;-80
2022/01/10 10:06:48;;;;;;;14.07;7.53;;;;;;;6.41;78.66;100784.75;4956662;29;20457;-80
2022/01/10 10:09:14;;;;;;;14.63;10.30;;;;;;;6.72;78.57;100783.00;4956772;29;20835;-80
2022/01/10 10:11:49;;;;;;;12.93;10.10;;;;;;;7.15;75.95;100793.22;4956621;29;20398;-80
2022/01/10 10:14:17;;;;;;;21.03;13.63;;;;;;;7.20;76.17;100794.25;4923682;29;20428;-80
2022/01/10 10:16:49;;;;;;;15.53;12.13;;;;;;;7.26;74.56;100797.94;4955024;29;20418;-80
2022/01/10 10:19:20;;;;;;;16.33;12.63;;;;;;;6.59;76.22;100803.75;4956607;29;20402;-80
2022/01/10 10:21:45;;;;;;;17.88;10.77;;;;;;;6.31;77.83;100803.19;4956391;29;20881;-80
2022/01/10 10:24:11;;;;;;;14.77;8.13;;;;;;;6.29;77.20;100803.38;4956645;29;20409;-79
2022/01/10 10:26:39;;;;;;;14.10;6.83;;;;;;;6.38;76.90;100798.63;4956492;29;20402;-79
2022/01/10 10:29:05;;;;;;;11.13;6.80;;;;;;;6.15;76.54;100809.84;4956467;29;20402;-80
2022/01/10 10:31:44;;;;;;;13.10;6.50;;;;;;;6.14;76.55;100811.69;4954993;28;20421;-80
2022/01/10 10:34:12;;;;;;;11.55;6.35;;;;;;;6.10;76.81;100813.13;4955953;29;20482;-80
2022/01/10 10:36:38;;;;;;;9.65;6.00;;;;;;;6.03;76.83;100811.47;4955879;29;20410;-79
2022/01/10 10:39:07;;;;;;;11.23;6.00;;;;;;;5.98;77.55;100816.66;4956260;29;20465;-80
2022/01/10 10:41:37;;;;;;;10.52;6.43;;;;;;;5.91;77.35;100816.66;4956351;29;20401;-79
2022/01/10 10:44:03;;;;;;;16.35;7.70;;;;;;;5.83;77.90;100822.19;4956132;29;20793;-79
2022/01/10 10:46:29;;;;;;;12.93;7.60;;;;;;;5.77;78.14;100828.38;4954164;28;20422;-79
2022/01/10 10:49:04;;;;;;;14.77;8.05;;;;;;;5.76;78.31;100824.88;4956161;29;20758;-79
2022/01/10 10:51:31;;;;;;;18.83;8.02;;;;;;;5.78;77.84;100832.75;4955434;29;20398;-79
2022/01/10 10:54:08;;;;;;;13.23;7.70;;;;;;;5.68;78.58;100833.13;4955968;29;20421;-80
2022/01/10 10:56:36;;;;;;;14.57;8.43;;;;;;;5.64;79.30;100839.94;4955652;29;20406;-79
2022/01/10 10:59:03;;;;;;;11.73;7.45;;;;;;;5.60;78.81;100833.31;4954880;29;20450;-80
2022/01/10 11:01:28;;;;;;;19.57;8.97;;;;;;;5.51;79.23;100828.34;4955826;29;20964;-79
2022/01/10 11:03:55;;;;;;;13.93;7.57;;;;;;;5.51;79.88;100833.72;4955221;28;20469;-79
2022/01/10 11:06:20;;;;;;;16.45;8.55;;;;;;;5.56;79.91;100840.16;4938244;29;20480;-79
2022/01/10 11:08:47;;;;;;;16.23;8.77;;;;;;;5.49;80.21;100843.84;4955316;29;20515;-80
2022/01/10 11:11:15;;;;;;;14.00;8.93;;;;;;;5.52;80.16;100857.72;4951574;28;20417;-80
2022/01/10 11:13:41;;;;;;;20.08;9.60;;;;;;;5.54;79.78;100844.88;4954723;28;20422;-80
2022/01/10 11:16:08;;;;;;;22.92;10.30;;;;;;;5.59;79.62;100857.72;4955723;29;20394;-80
2022/01/10 11:18:33;;;;;;;17.58;10.20;;;;;;;5.59;79.89;100852.34;4955540;29;20392;-80
2022/01/10 11:20:59;;;;;;;18.73;10.68;;;;;;;5.57;79.23;100857.91;4955776;29;20873;-80
2022/01/10 11:23:27;;;;;;;18.50;9.75;;;;;;;5.53;78.31;100863.94;4954884;29;20481;-80
2022/01/10 11:25:52;;;;;;;19.50;10.10;;;;;;;5.54;78.77;100865.56;4921755;29;20809;-80